Adair Village, Oregon
Current Conditions -  °F | °C
As of 9:55 AM on Monday 22 Dec 2014 (Local Time) from KCVO Reporting Station
Clear Clear  
Wind Chill: 12°   Ceiling: Unl
Heat Index: 12°   Visibility: 10mi
Dew Point:   Wind: 0mph
Humidity: 82%   Direction: NA
Pressure: 30.39"   Gusts: NA
Location:  44.6364°N, 123.28°W
Report Text: KCVO 221755Z AUTO 00000KT 10SM CLR 12/09 A3039 RMK AO1 10120 20090 52020
Loading
Personal Weather Stations






























Interactive Weather Map New forecast layout! Learn more

10-Day Weather Forecast

Advertisements
Track Severe Weather on mobile